createdAt,value
2022-10-22T00:07:59.282Z,61.56
2022-10-22T00:18:04.063Z,61.24
2022-10-22T00:28:09.227Z,61.29
2022-10-22T00:38:13.901Z,61.09
2022-10-22T00:48:19.496Z,61.13
2022-10-22T00:58:24.790Z,61.06
2022-10-22T01:08:30.041Z,61.02
2022-10-22T01:18:35.180Z,61.14
2022-10-22T01:28:40.722Z,61.20
2022-10-22T01:38:46.182Z,61.20
2022-10-22T01:48:51.930Z,61.21
2022-10-22T01:58:57.360Z,61.32
2022-10-22T02:09:02.849Z,61.38
2022-10-22T02:19:08.259Z,61.50
2022-10-22T02:29:13.540Z,61.51
2022-10-22T02:39:18.740Z,61.47
2022-10-22T02:49:23.659Z,61.62
2022-10-22T02:59:29.037Z,61.65
2022-10-22T03:09:34.592Z,61.67
2022-10-22T03:19:39.996Z,61.50
2022-10-22T03:29:45.287Z,61.49
2022-10-22T03:39:50.678Z,61.43
2022-10-22T03:49:56.102Z,61.55
2022-10-22T04:00:01.568Z,61.55
2022-10-22T04:10:06.893Z,61.49
2022-10-22T04:20:12.177Z,61.62
2022-10-22T04:30:17.078Z,61.68
2022-10-22T04:40:22.469Z,61.74
2022-10-22T04:50:27.921Z,61.62
2022-10-22T05:00:33.051Z,61.80
2022-10-22T05:10:38.229Z,61.76
2022-10-22T05:20:43.504Z,61.71
2022-10-22T05:30:48.058Z,61.67
2022-10-22T05:40:52.861Z,61.67
2022-10-22T05:50:58.097Z,61.61
2022-10-22T06:01:02.935Z,61.78
2022-10-22T06:11:08.352Z,61.70
2022-10-22T06:21:13.021Z,61.77
2022-10-22T06:31:18.185Z,63.62
2022-10-22T06:41:25.779Z,63.12
2022-10-22T06:51:33.147Z,62.92
2022-10-22T07:01:38.388Z,62.73
2022-10-22T07:11:43.929Z,62.19
2022-10-22T07:21:49.148Z,62.62
2022-10-22T07:31:54.098Z,62.16
2022-10-22T07:41:59.456Z,61.87
2022-10-22T07:52:04.843Z,62.45
2022-10-22T08:02:10.267Z,61.42
2022-10-22T08:12:15.103Z,61.64
2022-10-22T08:22:20.357Z,61.73
2022-10-22T08:42:30.661Z,61.53
2022-10-22T08:52:35.544Z,61.56
2022-10-22T09:02:41.082Z,61.51
2022-10-22T09:12:46.426Z,61.47
2022-10-22T09:22:51.691Z,61.33
2022-10-22T09:32:56.521Z,61.17
2022-10-22T09:43:01.847Z,61.27
2022-10-22T09:53:07.079Z,61.24
2022-10-22T10:03:12.469Z,61.30
2022-10-22T10:13:17.716Z,61.31
2022-10-22T10:23:24.540Z,61.45
2022-10-22T10:33:30.497Z,61.42
2022-10-22T10:43:35.761Z,61.20
2022-10-22T10:53:40.931Z,60.78
2022-10-22T11:03:46.481Z,60.83
2022-10-22T11:13:52.013Z,60.75
2022-10-22T11:23:57.517Z,61.04
2022-10-22T11:34:09.899Z,61.18
2022-10-22T11:44:13.270Z,61.16
2022-10-22T11:54:18.910Z,61.05
2022-10-22T12:04:24.669Z,61.07
2022-10-22T12:14:30.265Z,61.27
2022-10-22T12:25:54.967Z,61.72
2022-10-22T12:35:59.923Z,61.54
2022-10-22T12:46:05.161Z,61.55
2022-10-22T12:56:10.119Z,61.75
2022-10-22T13:06:15.567Z,61.62
2022-10-22T13:16:20.734Z,62.49
2022-10-22T13:26:25.938Z,62.36
2022-10-22T13:36:31.116Z,61.44
2022-10-22T13:46:36.437Z,61.22
2022-10-22T13:56:41.792Z,61.52
2022-10-22T14:06:47.275Z,61.80
2022-10-22T14:16:52.622Z,61.51
2022-10-22T14:26:57.517Z,61.71
2022-10-22T14:37:02.774Z,55.52
2022-10-22T14:47:08.224Z,62.47
2022-10-22T14:57:13.528Z,61.36
2022-10-22T15:07:19.082Z,60.29
2022-10-22T15:17:24.875Z,59.89
2022-10-22T15:27:30.074Z,59.13
2022-10-22T15:37:35.436Z,58.55
2022-10-22T15:47:41.016Z,57.94
2022-10-22T15:57:46.063Z,57.93
2022-10-22T16:09:10.962Z,56.54
2022-10-22T16:19:15.807Z,56.35
2022-10-22T16:29:21.118Z,56.55
2022-10-22T16:39:26.494Z,55.99
2022-10-22T16:49:33.544Z,55.23
2022-10-22T16:59:39.026Z,55.48
2022-10-22T17:09:44.321Z,55.20
2022-10-22T17:19:49.466Z,55.07
2022-10-22T17:29:54.782Z,54.82
2022-10-22T17:40:00.532Z,54.78
2022-10-22T17:50:05.651Z,54.70
2022-10-22T18:00:10.703Z,54.52
2022-10-22T18:10:15.977Z,54.45
2022-10-22T18:20:21.695Z,55.84
2022-10-22T18:30:27.229Z,55.02
2022-10-22T18:40:32.736Z,54.64
2022-10-22T18:50:38.028Z,54.73
2022-10-22T19:00:43.449Z,54.64
2022-10-22T19:10:48.789Z,54.67
2022-10-22T19:20:54.013Z,54.39
2022-10-22T19:30:59.645Z,54.41
2022-10-22T19:41:04.688Z,54.51
2022-10-22T19:51:10.395Z,54.30
2022-10-22T20:01:15.567Z,54.80
2022-10-22T20:11:20.679Z,53.48
2022-10-22T20:21:25.533Z,53.66
2022-10-22T20:31:30.795Z,53.75
2022-10-22T20:41:36.002Z,54.90
2022-10-22T20:51:41.348Z,53.66
2022-10-22T21:01:46.970Z,53.70
2022-10-22T21:21:57.580Z,54.03
2022-10-22T21:33:22.376Z,53.66
2022-10-22T21:43:26.808Z,53.55
2022-10-22T21:53:31.840Z,53.21
2022-10-22T22:03:37.313Z,53.35
2022-10-22T22:13:42.889Z,53.20
2022-10-22T22:23:48.130Z,52.82
2022-10-22T22:33:53.277Z,52.79
2022-10-22T22:43:58.693Z,52.61
2022-10-22T22:54:03.779Z,52.44
2022-10-22T23:04:09.029Z,52.70
2022-10-22T23:14:14.073Z,52.61
2022-10-22T23:24:19.411Z,52.50
2022-10-22T23:34:25.031Z,52.33
2022-10-22T23:44:30.876Z,52.74
2022-10-22T23:54:36.477Z,51.98
